Time;durP1;ratioP1;P1;durP2;ratioP2;P2;SDS_P1;SDS_P2;PMS_P1;PMS_P2;Temp;Humidity;BMP_temperature;BMP_pressure;BME280_temperature;BME280_humidity;BME280_pressure;Samples;Min_cycle;Max_cycle;Signal;HPM_P1;HPM_P2
2021/05/16 00:00:44;;;;;;;29.60;24.63;;;;;;;14.65;84.09;93119.16;4908912;28;20048;-83
2021/05/16 00:03:09;;;;;;;31.58;26.30;;;;;;;14.48;84.20;93114.00;4907915;29;20051;-83
2021/05/16 00:05:35;;;;;;;33.22;26.25;;;;;;;14.43;84.46;93106.25;4902294;29;20548;-83
2021/05/16 00:08:00;;;;;;;37.10;26.90;;;;;;;14.64;83.73;93106.97;4906268;29;20045;-83
2021/05/16 00:10:27;;;;;;;31.48;26.50;;;;;;;14.51;83.88;93103.53;4908365;29;20044;-83
2021/05/16 00:12:58;;;;;;;28.50;23.90;;;;;;;14.57;83.67;93096.88;4905884;29;20131;-83
2021/05/16 00:15:25;;;;;;;31.98;24.77;;;;;;;14.36;83.73;93080.22;4909163;29;20077;-83
2021/05/16 00:17:51;;;;;;;30.48;24.40;;;;;;;14.60;84.16;93130.00;4908270;29;20718;-83
2021/05/16 00:20:23;;;;;;;30.10;25.17;;;;;;;14.55;83.90;93130.22;4912188;29;20509;-83
2021/05/16 00:22:51;;;;;;;31.02;24.58;;;;;;;14.55;84.45;93124.91;4910349;29;20044;-83
2021/05/16 00:25:22;;;;;;;33.25;24.35;;;;;;;14.63;84.15;93132.78;4882112;29;20082;-83
2021/05/16 00:27:50;;;;;;;29.15;22.38;;;;;;;14.71;84.36;93133.78;4872369;29;20135;-83
2021/05/16 00:30:27;;;;;;;29.55;23.73;;;;;;;14.76;83.46;93120.28;4873024;29;20044;-84
2021/05/16 00:32:57;;;;;;;28.27;22.25;;;;;;;14.81;83.40;93132.59;4868950;29;20032;-83
2021/05/16 00:35:33;;;;;;;22.50;17.77;;;;;;;14.88;82.78;93138.91;4889869;29;20493;-83
2021/05/16 00:38:03;;;;;;;17.13;13.88;;;;;;;14.64;82.21;93107.75;4874662;29;20505;-83
2021/05/16 00:40:31;;;;;;;14.77;9.52;;;;;;;14.72;81.50;93109.53;4876677;29;20111;-84
2021/05/16 00:42:56;;;;;;;8.25;7.32;;;;;;;14.99;79.81;93134.72;4881633;29;20095;-83
2021/05/16 00:45:29;;;;;;;12.98;7.20;;;;;;;14.88;77.89;93114.97;4887261;29;20049;-83
2021/05/16 00:48:03;;;;;;;4.05;3.22;;;;;;;14.97;75.34;93115.66;4890036;29;20024;-83
2021/05/16 00:50:51;;;;;;;12.05;6.78;;;;;;;14.83;76.01;93096.56;4889241;29;20047;-83
2021/05/16 00:53:24;;;;;;;11.73;6.57;;;;;;;14.72;77.00;93082.16;4865942;29;20183;-83
2021/05/16 00:55:54;;;;;;;12.95;6.97;;;;;;;15.03;75.82;93117.00;4849093;29;20048;-84
2021/05/16 00:58:19;;;;;;;10.57;4.97;;;;;;;14.84;74.34;93092.03;4859258;29;20051;-84
2021/05/16 01:00:45;;;;;;;12.57;6.80;;;;;;;14.99;74.45;93110.78;4886841;29;20037;-84
2021/05/16 01:03:12;;;;;;;4.35;3.45;;;;;;;14.84;73.89;93084.84;4876975;29;20522;-84
2021/05/16 01:05:44;;;;;;;5.18;3.30;;;;;;;14.68;74.45;93081.25;4885008;29;20027;-84
2021/05/16 01:08:11;;;;;;;9.10;5.50;;;;;;;14.91;74.35;93109.00;4888332;29;20045;-84
2021/05/16 01:10:40;;;;;;;7.25;4.03;;;;;;;14.73;75.21;93086.38;4887632;29;20040;-84
2021/05/16 01:13:08;;;;;;;7.20;4.57;;;;;;;14.78;76.27;93096.78;4890203;29;20469;-84
2021/05/16 01:15:40;;;;;;;5.68;3.90;;;;;;;15.00;76.26;93099.00;4887239;29;20405;-84
2021/05/16 01:18:06;;;;;;;5.38;3.63;;;;;;;14.95;77.23;93101.13;4875630;29;20066;-85
2021/05/16 01:20:40;;;;;;;16.25;7.55;;;;;;;14.94;74.83;93084.41;4884392;29;20552;-84
2021/05/16 01:23:30;;;;;;;3.75;2.83;;;;;;;14.97;74.17;93083.72;4877175;29;20049;-83
2021/05/16 01:25:56;;;;;;;7.72;4.53;;;;;;;14.95;74.93;93083.31;4906130;29;20040;-84
2021/05/16 01:28:22;;;;;;;5.72;3.75;;;;;;;14.92;75.02;93086.59;4911807;29;20090;-84
2021/05/16 01:30:49;;;;;;;6.03;3.67;;;;;;;14.87;76.24;93073.53;4909957;29;20040;-85
2021/05/16 01:33:17;;;;;;;5.80;4.18;;;;;;;14.97;75.10;93074.97;4909224;29;20059;-84
2021/05/16 01:35:42;;;;;;;7.00;4.15;;;;;;;14.76;73.56;93040.47;4908860;29;20536;-84
2021/05/16 01:38:08;;;;;;;6.90;4.30;;;;;;;14.79;74.13;93041.72;4915628;29;20033;-84
2021/05/16 01:40:37;;;;;;;7.78;3.92;;;;;;;14.89;75.26;93054.56;4907934;29;20230;-84
2021/05/16 01:43:02;;;;;;;14.40;8.00;;;;;;;14.84;75.37;93062.78;4911580;29;20048;-84
2021/05/16 01:45:31;;;;;;;8.27;4.88;;;;;;;14.97;76.41;93077.63;4912711;28;20047;-85
2021/05/16 01:47:58;;;;;;;7.82;4.72;;;;;;;14.81;76.22;93058.13;4873124;29;20038;-85
2021/05/16 01:50:32;;;;;;;6.65;3.88;;;;;;;14.74;76.28;93074.63;4908062;29;20027;-85
2021/05/16 01:53:00;;;;;;;7.78;4.45;;;;;;;14.52;77.03;93046.56;4891655;29;20542;-84
2021/05/16 01:55:26;;;;;;;6.10;3.40;;;;;;;14.66;78.03;93062.22;4913361;29;20668;-84
2021/05/16 01:57:52;;;;;;;3.75;3.08;;;;;;;14.77;77.68;93062.53;4910057;29;20125;-84
2021/05/16 02:00:36;;;;;;;3.65;2.95;;;;;;;14.96;78.11;93090.16;4910300;29;20171;-85
2021/05/16 02:03:03;;;;;;;12.60;5.68;;;;;;;14.91;76.69;93090.38;4890179;29;20185;-84
2021/05/16 02:05:29;;;;;;;7.68;3.85;;;;;;;14.72;77.54;93053.69;4912252;29;20036;-84
2021/05/16 02:07:58;;;;;;;8.02;4.53;;;;;;;14.82;77.73;93076.41;4910898;29;20102;-84
2021/05/16 02:10:23;;;;;;;8.35;4.00;;;;;;;14.64;78.00;93059.09;4908124;29;20142;-85
2021/05/16 02:12:50;;;;;;;6.45;3.55;;;;;;;14.63;78.58;93073.50;4888946;29;20541;-84
2021/05/16 02:15:18;;;;;;;7.25;4.55;;;;;;;14.61;78.11;93075.72;4892624;29;20421;-85
2021/05/16 02:17:47;;;;;;;8.60;4.60;;;;;;;14.68;78.21;93070.63;4890960;29;20020;-85
2021/05/16 02:20:18;;;;;;;7.53;4.38;;;;;;;15.10;78.09;93119.84;4914926;29;20501;-84
2021/05/16 02:22:46;;;;;;;8.07;4.25;;;;;;;15.00;78.16;93098.25;4911474;29;20541;-85
2021/05/16 02:25:15;;;;;;;11.05;6.70;;;;;;;14.98;78.43;93101.25;4912154;29;20144;-84
2021/05/16 02:27:41;;;;;;;20.27;9.52;;;;;;;14.96;78.09;93090.16;4906319;29;20051;-85
2021/05/16 02:30:11;;;;;;;23.73;10.20;;;;;;;14.94;76.75;93083.63;4895688;29;20086;-84
2021/05/16 02:32:43;;;;;;;24.40;8.00;;;;;;;14.86;74.99;93061.31;4907470;29;20491;-84
2021/05/16 02:35:14;;;;;;;27.73;11.82;;;;;;;15.21;74.66;93114.88;4908332;29;20039;-84
2021/05/16 02:37:40;;;;;;;15.48;8.05;;;;;;;14.96;74.25;93078.72;4908517;29;20351;-85
2021/05/16 02:40:09;;;;;;;18.25;8.73;;;;;;;15.18;73.64;93110.22;4860771;29;21042;-85
2021/05/16 02:42:34;;;;;;;18.52;7.28;;;;;;;15.01;74.25;93089.94;4902661;28;20222;-84
2021/05/16 02:45:00;;;;;;;31.40;9.68;;;;;;;15.11;74.41;93112.66;4894923;29;20039;-84
2021/05/16 02:47:26;;;;;;;12.93;5.60;;;;;;;15.25;74.95;93115.00;4910948;29;20404;-84
2021/05/16 02:49:51;;;;;;;13.63;6.28;;;;;;;15.11;74.77;93096.69;4893903;28;20572;-84
2021/05/16 02:52:17;;;;;;;13.45;5.75;;;;;;;14.96;74.90;93084.81;4893918;29;20044;-84
2021/05/16 02:54:45;;;;;;;19.20;8.07;;;;;;;15.07;73.48;93101.91;4861667;29;20089;-84
2021/05/16 02:57:34;;;;;;;10.82;6.40;;;;;;;15.24;72.57;93130.19;4897801;29;20047;-85
2021/05/16 03:00:09;;;;;;;13.07;4.35;;;;;;;15.02;73.09;93104.78;4848074;29;20046;-86
2021/05/16 03:02:59;;;;;;;9.55;5.47;;;;;;;15.11;73.11;93128.63;4896334;29;20365;-85
2021/05/16 03:05:25;;;;;;;13.60;5.82;;;;;;;14.95;73.92;93123.22;4882338;29;20273;-84
2021/05/16 03:07:51;;;;;;;8.93;3.92;;;;;;;14.72;74.44;93088.25;4861365;29;20173;-84
2021/05/16 03:10:18;;;;;;;67.05;34.60;;;;;;;14.87;72.91;93094.81;4883583;29;20676;-85
2021/05/16 03:13:13;;;;;;;;;;;;;;;;;;;;;
2021/05/16 03:15:41;;;;;;;9.02;5.25;;;;;;;15.03;71.49;93109.00;4884314;29;20052;-85
2021/05/16 03:18:22;;;;;;;7.65;3.92;;;;;;;14.94;72.18;93103.03;4863440;29;20550;-86
2021/05/16 03:20:59;;;;;;;9.77;4.43;;;;;;;14.98;71.62;93101.25;4872693;29;20017;-86
2021/05/16 03:23:31;;;;;;;9.00;3.53;;;;;;;15.21;71.73;93146.03;4910307;29;20218;-85
2021/05/16 03:26:41;;;;;;;8.10;3.90;;;;;;;15.29;70.98;93143.28;4821572;29;20065;-86
2021/05/16 03:33:19;;;;;;;6.65;3.78;;;;;;;15.09;71.41;93114.91;4775632;29;20394;-86
2021/05/16 03:48:32;;;;;;;8.82;3.25;;;;;;;15.03;70.63;93086.94;4871976;29;20096;-86
2021/05/16 03:52:09;;;;;;;;;;;;;;;;;;;;;
2021/05/16 03:54:40;;;;;;;;;;;;;;;;;;;;;
2021/05/16 03:57:50;;;;;;;8.85;3.75;;;;;;;15.37;70.57;93133.63;4814823;29;20647;-88
2021/05/16 04:00:20;;;;;;;6.38;2.97;;;;;;;15.42;69.80;93146.72;4750101;29;20065;-86
2021/05/16 04:02:55;;;;;;;11.43;4.13;;;;;;;15.10;69.44;93090.59;4837662;29;20102;-86
2021/05/16 04:05:30;;;;;;;4.93;3.00;;;;;;;15.08;68.82;93098.16;4885093;29;20389;-85
2021/05/16 04:33:55;;;;;;;7.28;2.53;;;;;;;15.66;66.84;93130.75;4891286;23;19922;-87
2021/05/16 04:42:21;;;;;;;7.13;2.70;;;;;;;15.55;68.82;93116.31;4848358;29;20023;-87
2021/05/16 04:45:23;;;;;;;7.25;2.80;;;;;;;15.87;68.10;93159.91;4896429;28;20154;-86
2021/05/16 04:47:54;;;;;;;4.43;2.45;;;;;;;15.63;67.67;93112.00;4851195;28;20543;-86
2021/05/16 04:51:06;;;;;;;5.75;2.67;;;;;;;15.67;67.52;93116.31;4877651;23;20061;-87
2021/05/16 04:53:58;;;;;;;;;;;;;;;;;;;;;
2021/05/16 04:57:21;;;;;;;3.30;2.42;;;;;;;15.99;68.22;93157.97;4703314;29;20097;-86
2021/05/16 05:00:33;;;;;;;4.75;3.05;;;;;;;16.05;67.75;93163.84;4733599;29;20867;-87
2021/05/16 05:03:31;;;;;;;;;;;;;;;;;;;;;
2021/05/16 05:06:30;;;;;;;;;;;;;;;;;;;;;
2021/05/16 05:09:21;;;;;;;9.80;3.67;;;;;;;15.86;67.93;93108.50;4704181;29;20058;-86
2021/05/16 05:17:58;;;;;;;6.40;2.67;;;;;;;15.98;65.49;93131.66;4769194;29;20062;-85
2021/05/16 05:20:26;;;;;;;5.30;3.20;;;;;;;16.19;65.75;93152.81;4793634;29;20026;-86
2021/05/16 05:23:15;;;;;;;6.82;3.30;;;;;;;16.12;66.84;93157.94;4714455;29;20126;-87
2021/05/16 05:25:43;;;;;;;10.05;3.47;;;;;;;16.35;66.59;93180.31;4790170;29;20074;-86
2021/05/16 05:28:11;;;;;;;7.10;4.20;;;;;;;16.33;67.04;93169.97;4736080;29;20209;-86
2021/05/16 05:30:46;;;;;;;6.90;3.58;;;;;;;16.49;65.71;93180.69;4741991;29;20035;-85
2021/05/16 05:33:50;;;;;;;;;;;;;;;16.55;65.77;93186.56;4723265;29;20148;-87
2021/05/16 05:36:27;;;;;;;6.78;3.55;;;;;;;16.42;65.28;93159.16;4716739;29;20460;-86
2021/05/16 05:38:55;;;;;;;5.43;3.13;;;;;;;16.45;65.43;93158.50;4798046;29;20755;-86
2021/05/16 05:41:54;;;;;;;6.53;3.40;;;;;;;16.64;63.97;93174.66;4871427;29;20055;-87
2021/05/16 05:45:09;;;;;;;5.57;2.90;;;;;;;16.64;62.68;93145.31;4805653;29;20059;-87
2021/05/16 05:47:41;;;;;;;5.30;2.70;;;;;;;16.80;63.04;93145.34;4844503;29;20537;-87
2021/05/16 05:50:10;;;;;;;8.18;3.10;;;;;;;17.15;60.65;93188.19;4844434;29;20053;-85
2021/05/16 05:52:43;;;;;;;11.93;3.70;;;;;;;16.87;60.53;93148.97;4842117;29;20064;-85
2021/05/16 05:55:09;;;;;;;6.20;3.00;;;;;;;17.16;62.40;93179.81;4793296;29;20530;-85
2021/05/16 05:57:40;;;;;;;7.18;2.45;;;;;;;17.29;62.64;93169.84;4869728;29;20509;-85
2021/05/16 06:00:09;;;;;;;4.80;2.92;;;;;;;17.41;61.87;93183.09;4875132;29;20402;-85
2021/05/16 06:02:38;;;;;;;5.18;3.72;;;;;;;17.05;60.19;93132.63;4880846;29;20033;-84
2021/05/16 06:05:06;;;;;;;5.82;2.92;;;;;;;17.30;61.17;93168.69;4850705;29;20048;-85
2021/05/16 06:07:31;;;;;;;7.43;3.03;;;;;;;17.19;61.58;93159.66;4861512;29;20502;-84
2021/05/16 06:09:59;;;;;;;5.97;2.92;;;;;;;17.24;62.69;93165.53;4877087;29;20644;-84
2021/05/16 06:12:32;;;;;;;9.20;3.80;;;;;;;17.37;61.27;93166.22;4872797;29;20560;-86
2021/05/16 06:15:00;;;;;;;9.60;3.53;;;;;;;17.41;60.16;93164.38;4871279;29;20056;-84
2021/05/16 06:17:26;;;;;;;5.90;2.45;;;;;;;17.31;59.80;93143.53;4863264;29;20028;-83
2021/05/16 06:19:54;;;;;;;10.05;3.03;;;;;;;17.72;61.22;93188.44;4861321;29;20136;-85
2021/05/16 06:22:20;;;;;;;6.28;2.60;;;;;;;17.84;60.87;93187.53;4877607;29;20053;-85
2021/05/16 06:24:46;;;;;;;8.73;2.65;;;;;;;17.84;58.78;93165.41;4877238;29;20672;-89
2021/05/16 06:27:19;;;;;;;6.97;2.88;;;;;;;17.84;58.88;93160.06;4868840;29;20120;-91
2021/05/16 06:29:47;;;;;;;9.95;2.95;;;;;;;17.87;58.92;93151.34;4857490;29;20044;-88
2021/05/16 06:32:25;;;;;;;7.72;2.92;;;;;;;18.14;59.70;93175.22;4880620;29;20024;-91
2021/05/16 06:35:00;;;;;;;9.13;3.65;;;;;;;18.28;58.29;93174.75;4854933;29;20063;-90
2021/05/16 06:37:25;;;;;;;10.80;3.45;;;;;;;18.53;57.90;93185.94;4877488;29;20036;-85
2021/05/16 06:40:01;;;;;;;7.68;3.90;;;;;;;18.53;58.05;93170.69;4879867;29;20371;-92
2021/05/16 06:42:35;;;;;;;7.78;3.95;;;;;;;18.77;57.50;93172.28;4813732;29;20065;-88
2021/05/16 06:45:03;;;;;;;6.47;2.95;;;;;;;18.91;55.12;93171.81;4854488;29;20166;-90
2021/05/16 06:47:31;;;;;;;5.22;2.38;;;;;;;19.15;56.15;93158.09;4879989;29;20032;-88
2021/05/16 06:49:57;;;;;;;8.60;3.20;;;;;;;19.99;54.56;93187.34;4851424;29;20155;-92
2021/05/16 06:52:23;;;;;;;8.50;3.30;;;;;;;20.75;52.21;93142.34;4857590;29;20469;-91
2021/05/16 06:54:49;;;;;;;8.10;3.00;;;;;;;22.10;48.40;93167.72;4860397;29;20043;-90
2021/05/16 06:57:18;;;;;;;5.15;2.20;;;;;;;22.84;45.95;93160.78;4837771;29;20045;-85
2021/05/16 06:59:44;;;;;;;4.65;2.00;;;;;;;23.01;44.40;93161.22;4846827;29;20021;-85
2021/05/16 07:02:09;;;;;;;4.35;2.50;;;;;;;23.03;44.49;93173.16;4861939;29;20044;-86
2021/05/16 07:04:35;;;;;;;7.30;2.10;;;;;;;22.71;44.90;93148.81;4829616;29;20645;-88
2021/05/16 07:07:01;;;;;;;3.85;2.42;;;;;;;22.29;45.68;93146.69;4860030;29;20059;-89
2021/05/16 07:09:29;;;;;;;5.72;2.63;;;;;;;22.13;46.66;93181.22;4839386;29;20042;-87
2021/05/16 07:11:58;;;;;;;6.82;2.67;;;;;;;21.47;47.95;93144.59;4835516;29;20553;-87
2021/05/16 07:24:29;;;;;;;9.07;2.60;;;;;;;20.54;51.34;93187.72;4904629;23;20512;-91
2021/05/16 07:26:54;;;;;;;5.90;3.47;;;;;;;20.24;52.00;93145.56;4871942;29;20040;-92
2021/05/16 07:29:20;;;;;;;6.68;2.97;;;;;;;20.28;50.46;93146.34;4892065;29;20052;-89
2021/05/16 07:31:48;;;;;;;5.80;3.28;;;;;;;20.38;50.88;93163.00;4895324;29;20202;-92
2021/05/16 07:34:13;;;;;;;5.10;3.13;;;;;;;20.38;50.83;93152.28;4892048;29;20044;-92
2021/05/16 07:36:39;;;;;;;7.68;3.42;;;;;;;20.42;50.89;93150.41;4874523;29;20490;-92
2021/05/16 07:39:05;;;;;;;15.40;6.38;;;;;;;20.38;52.12;93158.41;4880951;29;20060;-92
2021/05/16 07:41:34;;;;;;;15.52;5.95;;;;;;;20.39;51.24;93143.84;4888750;29;20036;-89
2021/05/16 07:44:00;;;;;;;6.00;3.85;;;;;;;20.38;51.23;93117.41;4883738;29;20044;-92
2021/05/16 07:46:26;;;;;;;6.25;3.25;;;;;;;20.62;50.58;93136.44;4892982;29;20037;-89
2021/05/16 07:48:54;;;;;;;7.28;3.22;;;;;;;20.55;50.20;93124.88;4897411;29;20686;-93
2021/05/16 07:51:20;;;;;;;8.07;3.20;;;;;;;20.44;50.38;93129.31;4881040;29;20980;-85
2021/05/16 07:53:46;;;;;;;10.38;3.95;;;;;;;20.87;50.31;93177.00;4897267;29;20032;-88
2021/05/16 07:56:11;;;;;;;7.28;3.78;;;;;;;20.79;49.42;93156.59;4873391;29;20488;-88
2021/05/16 07:58:39;;;;;;;8.35;4.10;;;;;;;21.03;50.13;93174.09;4877561;29;20052;-86
2021/05/16 08:01:05;;;;;;;8.15;4.47;;;;;;;21.12;49.81;93164.59;4895585;29;20090;-92
2021/05/16 08:03:30;;;;;;;12.77;4.10;;;;;;;21.22;49.38;93154.34;4885197;29;20596;-91
2021/05/16 08:05:57;;;;;;;5.25;3.83;;;;;;;21.42;48.88;93155.66;4873344;29;20083;-94
2021/05/16 08:08:23;;;;;;;10.93;3.85;;;;;;;21.85;49.04;93156.75;4882318;29;20032;-92
2021/05/16 08:10:51;;;;;;;5.35;3.45;;;;;;;22.29;47.68;93173.59;4880714;29;20059;-94
2021/05/16 08:13:20;;;;;;;6.90;4.35;;;;;;;22.53;45.67;93158.72;4855624;29;20043;-95
2021/05/16 08:15:57;;;;;;;7.80;4.03;;;;;;;23.05;46.41;93168.16;4885462;29;20409;-91
2021/05/16 08:18:25;;;;;;;6.63;3.38;;;;;;;23.70;45.29;93134.75;4864894;29;20044;-93
2021/05/16 08:20:54;;;;;;;5.45;3.38;;;;;;;24.65;40.79;93130.28;4846150;29;20080;-94
2021/05/16 08:23:22;;;;;;;6.60;3.42;;;;;;;26.24;38.67;93137.34;4878064;29;20458;-94
2021/05/16 08:25:49;;;;;;;8.27;3.55;;;;;;;26.89;37.75;93117.25;4839487;29;20060;-89
2021/05/16 08:28:14;;;;;;;7.93;3.53;;;;;;;28.75;35.32;93136.34;4882056;29;20116;-88
2021/05/16 08:30:45;;;;;;;8.05;3.30;;;;;;;30.13;32.98;93143.41;4869637;29;20051;-95
2021/05/16 08:33:24;;;;;;;3.97;2.67;;;;;;;31.21;32.30;93165.47;4858679;29;20045;-93
2021/05/16 08:35:50;;;;;;;4.63;2.55;;;;;;;32.07;29.24;93131.59;4849250;29;20516;-91
2021/05/16 08:38:21;;;;;;;5.45;2.47;;;;;;;32.38;28.74;93106.38;4870638;29;20036;-94
2021/05/16 08:41:07;;;;;;;8.18;2.83;;;;;;;32.41;29.00;93133.59;4807486;29;20057;-92
2021/05/16 08:44:01;;;;;;;6.45;2.42;;;;;;;32.33;28.35;93131.56;4808318;29;20052;-95
2021/05/16 08:46:27;;;;;;;4.87;2.53;;;;;;;32.34;28.54;93139.31;4819854;29;20049;-88
2021/05/16 08:48:54;;;;;;;5.75;3.13;;;;;;;31.99;29.18;93122.09;4877134;29;20048;-92
2021/05/16 08:51:22;;;;;;;6.95;2.60;;;;;;;31.39;29.69;93165.69;4849236;29;20044;-93
2021/05/16 08:53:47;;;;;;;4.55;2.65;;;;;;;31.03;30.33;93139.88;4867644;29;21295;-93
2021/05/16 08:56:13;;;;;;;8.45;3.05;;;;;;;30.00;31.98;93129.72;4868173;29;20051;-91
2021/05/16 08:58:39;;;;;;;6.55;2.53;;;;;;;29.71;31.31;93145.94;4883274;29;20798;-90
2021/05/16 09:01:24;;;;;;;5.63;2.45;;;;;;;28.90;33.25;93174.13;4884412;29;20040;-89
2021/05/16 09:03:53;;;;;;;5.43;2.08;;;;;;;28.53;34.70;93156.97;4865333;29;20045;-92
2021/05/16 09:06:32;;;;;;;3.42;2.22;;;;;;;28.31;34.48;93166.69;4882406;29;20096;-91
2021/05/16 09:09:18;;;;;;;3.33;2.47;;;;;;;27.96;34.39;93133.47;4867895;29;20052;-93
2021/05/16 09:12:05;;;;;;;8.70;3.00;;;;;;;28.29;35.83;93169.06;4877024;29;20040;-91
2021/05/16 09:14:57;;;;;;;7.03;2.17;;;;;;;29.06;34.56;93155.16;4864256;29;20403;-90
2021/05/16 09:17:35;;;;;;;5.15;2.17;;;;;;;29.37;33.29;93164.63;4871084;29;20072;-90
2021/05/16 09:20:06;;;;;;;5.15;2.30;;;;;;;29.80;31.62;93161.72;4866510;29;20046;-92
2021/05/16 09:22:40;;;;;;;7.53;2.33;;;;;;;29.75;31.48;93134.97;4861401;29;20068;-90
2021/05/16 09:25:23;;;;;;;5.03;1.92;;;;;;;29.55;31.53;93159.56;4876996;29;20091;-84
2021/05/16 09:27:54;;;;;;;3.65;1.88;;;;;;;29.28;31.15;93151.56;4866647;29;20072;-89
2021/05/16 09:30:26;;;;;;;3.30;2.08;;;;;;;29.01;31.34;93142.06;4852422;29;20056;-91
2021/05/16 09:33:13;;;;;;;5.75;2.00;;;;;;;28.89;31.00;93148.13;4884209;29;20063;-86
2021/05/16 09:35:44;;;;;;;5.03;2.13;;;;;;;28.70;31.21;93133.31;4867757;29;20602;-93
2021/05/16 09:38:19;;;;;;;4.22;1.67;;;;;;;28.13;32.92;93144.50;4889494;29;20905;-93
2021/05/16 09:41:03;;;;;;;7.00;1.77;;;;;;;27.52;32.83;93117.53;4814919;29;20590;-93
2021/05/16 09:43:30;;;;;;;13.00;2.67;;;;;;;27.53;34.27;93116.34;4869659;29;21045;-93
2021/05/16 09:46:05;;;;;;;5.45;2.08;;;;;;;27.73;33.87;93132.72;4877730;29;20126;-93
2021/05/16 09:48:44;;;;;;;3.03;1.98;;;;;;;27.56;33.23;93096.56;4857460;29;20053;-93
2021/05/16 09:51:25;;;;;;;4.72;2.20;;;;;;;27.13;35.49;93134.34;4868260;29;20056;-93
2021/05/16 09:54:04;;;;;;;6.43;2.10;;;;;;;27.14;35.22;93095.22;4873503;29;20040;-92
2021/05/16 09:56:44;;;;;;;5.80;2.38;;;;;;;27.07;34.83;93131.31;4886527;29;20736;-90
2021/05/16 09:59:12;;;;;;;6.07;2.58;;;;;;;26.47;34.68;93125.88;4887710;29;20049;-86
2021/05/16 10:01:39;;;;;;;6.75;1.90;;;;;;;26.31;35.61;93112.88;4867771;29;20221;-93
2021/05/16 10:04:06;;;;;;;4.28;2.47;;;;;;;26.07;36.10;93116.59;4886723;29;20040;-90
2021/05/16 10:06:33;;;;;;;7.88;2.05;;;;;;;26.23;34.99;93103.31;4886061;29;20494;-93
2021/05/16 10:08:59;;;;;;;7.55;3.35;;;;;;;26.27;35.91;93091.25;4885101;29;20052;-89
2021/05/16 10:11:30;;;;;;;3.00;1.88;;;;;;;26.63;35.95;93112.53;4880841;29;20044;-91
2021/05/16 10:14:09;;;;;;;5.95;2.33;;;;;;;26.55;36.00;93062.28;4882086;29;20123;-91
2021/05/16 10:16:42;;;;;;;3.63;1.85;;;;;;;27.09;35.05;93107.28;4872450;29;20588;-91
2021/05/16 10:19:41;;;;;;;5.57;1.90;;;;;;;27.31;34.20;93113.19;4864231;29;20040;-88
2021/05/16 10:22:11;;;;;;;5.70;2.20;;;;;;;27.32;34.89;93111.25;4861997;29;20078;-88
2021/05/16 10:24:43;;;;;;;8.65;3.22;;;;;;;27.29;34.34;93082.19;4869713;29;20084;-92
2021/05/16 10:27:21;;;;;;;4.10;2.03;;;;;;;27.27;33.95;93106.28;4863078;29;20040;-89
2021/05/16 10:30:06;;;;;;;3.58;2.33;;;;;;;27.33;33.76;93101.91;4874759;29;20029;-90
2021/05/16 10:32:41;;;;;;;6.97;3.13;;;;;;;27.11;34.41;93096.03;4884871;29;20032;-91
2021/05/16 10:35:08;;;;;;;3.67;2.15;;;;;;;26.73;35.03;93087.25;4877942;29;20059;-91
2021/05/16 10:37:44;;;;;;;14.70;5.72;;;;;;;26.21;35.76;93060.38;4873078;29;20798;-91
2021/05/16 10:40:12;;;;;;;12.50;5.05;;;;;;;25.96;38.53;93119.41;4882149;29;20040;-91
2021/05/16 10:42:40;;;;;;;19.15;5.97;;;;;;;24.52;42.28;93103.72;4884541;29;20060;-86
2021/05/16 10:45:22;;;;;;;9.20;3.17;;;;;;;22.66;47.35;93143.78;4838307;29;20414;-84
2021/05/16 10:47:52;;;;;;;5.47;3.05;;;;;;;21.88;48.56;93129.91;4865608;29;20613;-89
2021/05/16 10:50:23;;;;;;;11.18;3.70;;;;;;;21.73;48.83;93182.06;4883635;29;20033;-91
2021/05/16 10:53:19;;;;;;;4.30;2.03;;;;;;;20.66;50.67;93179.47;4879968;29;20184;-87
2021/05/16 10:55:52;;;;;;;6.60;1.65;;;;;;;20.29;51.07;93182.00;4882054;29;20047;-86
2021/05/16 10:58:42;;;;;;;3.97;1.95;;;;;;;19.65;51.84;93169.59;4882838;29;20164;-89
2021/05/16 11:01:14;;;;;;;3.60;1.27;;;;;;;19.09;50.04;93175.56;4872490;29;20076;-85
2021/05/16 11:03:57;;;;;;;3.40;1.20;;;;;;;18.81;52.10;93148.28;4865085;29;20052;-88
2021/05/16 11:06:38;;;;;;;3.20;0.90;;;;;;;18.71;53.34;93162.25;4860503;29;20044;-86
2021/05/16 11:09:10;;;;;;;2.97;1.10;;;;;;;18.49;55.51;93143.06;4882320;29;20525;-87
2021/05/16 11:11:39;;;;;;;1.40;1.30;;;;;;;18.63;56.45;93142.59;4885075;29;20087;-86
2021/05/16 11:14:28;;;;;;;4.25;1.73;;;;;;;18.83;55.75;93162.06;4879283;29;20095;-86
2021/05/16 11:16:55;;;;;;;8.20;3.33;;;;;;;18.98;56.39;93153.94;4873403;29;20045;-86
2021/05/16 11:19:22;;;;;;;14.98;4.07;;;;;;;19.17;56.54;93166.50;4882085;29;20148;-87
2021/05/16 11:21:48;;;;;;;3.75;2.38;;;;;;;19.41;59.29;93163.47;4875190;29;20352;-85
2021/05/16 11:24:31;;;;;;;5.07;2.38;;;;;;;19.66;57.53;93187.25;4877926;29;20059;-86
2021/05/16 11:27:00;;;;;;;5.82;3.08;;;;;;;19.23;56.02;93138.31;4852590;29;20041;-90
2021/05/16 11:29:25;;;;;;;46.75;33.20;;;;;;;19.39;58.09;93184.50;4879204;29;20032;-86
2021/05/16 11:32:18;;;;;;;8.70;4.35;;;;;;;19.11;57.32;93151.88;4800962;29;20054;-87
2021/05/16 11:35:21;;;;;;;7.93;3.95;;;;;;;19.61;55.65;93200.94;4875441;29;20050;-92
2021/05/16 11:37:55;;;;;;;3.05;1.85;;;;;;;19.75;51.28;93188.53;4885316;29;20045;-88
2021/05/16 11:40:26;;;;;;;4.07;2.33;;;;;;;19.93;55.50;93175.41;4874241;29;20033;-87
2021/05/16 11:43:01;;;;;;;5.75;3.25;;;;;;;20.27;57.40;93187.75;4880209;29;20100;-87
2021/05/16 11:45:32;;;;;;;3.10;2.50;;;;;;;20.36;55.85;93192.09;4862307;29;20080;-89
2021/05/16 11:47:57;;;;;;;4.97;3.08;;;;;;;20.36;56.04;93170.66;4874308;29;20039;-90
2021/05/16 11:50:38;;;;;;;4.50;2.63;;;;;;;20.44;56.36;93183.00;4885620;29;20269;-90
2021/05/16 11:53:05;;;;;;;5.20;2.38;;;;;;;20.43;55.46;93160.00;4868400;29;20138;-89
2021/05/16 11:55:32;;;;;;;5.93;2.83;;;;;;;20.64;55.50;93176.34;4885411;29;20036;-89
2021/05/16 11:57:58;;;;;;;4.78;2.92;;;;;;;20.15;57.75;93155.00;4883446;29;20079;-89
2021/05/16 12:00:24;;;;;;;5.07;2.95;;;;;;;20.41;55.95;93181.84;4865645;29;20040;-90
2021/05/16 12:02:50;;;;;;;3.72;2.58;;;;;;;20.35;55.02;93163.72;4872137;29;20039;-89
2021/05/16 12:05:31;;;;;;;4.25;2.90;;;;;;;20.17;56.48;93185.72;4888246;29;20024;-87
2021/05/16 12:07:59;;;;;;;5.57;3.50;;;;;;;19.71;58.07;93146.72;4876591;29;20040;-87
2021/05/16 12:10:27;;;;;;;6.88;3.60;;;;;;;19.62;57.05;93194.47;4872365;29;20049;-91
2021/05/16 12:12:53;;;;;;;6.18;3.55;;;;;;;19.41;58.38;93195.63;4871989;29;20056;-89
2021/05/16 12:15:25;;;;;;;6.80;4.28;;;;;;;19.17;59.65;93176.44;4875459;29;20036;-88
2021/05/16 12:17:56;;;;;;;5.82;4.35;;;;;;;19.13;59.48;93184.44;4858739;29;20040;-90
2021/05/16 12:20:27;;;;;;;5.55;4.70;;;;;;;19.16;62.02;93220.44;4876126;29;20550;-88
2021/05/16 12:22:56;;;;;;;7.82;4.35;;;;;;;19.07;61.20;93230.59;4864469;29;20053;-88
2021/05/16 12:25:28;;;;;;;8.65;4.20;;;;;;;18.51;63.57;93207.72;4879183;29;20083;-86
2021/05/16 12:27:54;;;;;;;9.10;4.68;;;;;;;18.39;66.83;93170.38;4869228;29;20108;-84
2021/05/16 12:30:19;;;;;;;6.20;4.50;;;;;;;18.68;67.05;93216.47;4863251;29;20045;-85
2021/05/16 12:32:51;;;;;;;7.57;4.90;;;;;;;18.58;67.52;93215.91;4864051;29;20096;-85
2021/05/16 12:35:19;;;;;;;13.00;4.90;;;;;;;18.46;67.65;93218.69;4862674;29;20024;-86
2021/05/16 12:37:48;;;;;;;11.07;6.25;;;;;;;18.50;69.00;93235.59;4878695;29;20588;-84
2021/05/16 12:40:27;;;;;;;10.52;5.05;;;;;;;18.55;67.51;93230.00;4877649;29;20053;-84
2021/05/16 12:43:05;;;;;;;6.60;5.13;;;;;;;18.45;68.03;93217.16;4863749;29;20045;-85
2021/05/16 12:45:31;;;;;;;7.47;4.75;;;;;;;18.35;67.92;93227.63;4860587;29;20638;-86
2021/05/16 12:47:57;;;;;;;6.88;5.40;;;;;;;18.21;67.69;93227.31;4876139;29;20443;-87
2021/05/16 12:50:36;;;;;;;8.15;4.50;;;;;;;18.06;69.21;93215.53;4884952;29;20366;-85
2021/05/16 12:53:30;;;;;;;4.88;4.38;;;;;;;17.98;69.59;93227.22;4867870;29;20933;-85
2021/05/16 12:56:21;;;;;;;8.45;4.95;;;;;;;17.84;70.03;93213.53;4880771;29;20048;-85
2021/05/16 12:59:11;;;;;;;13.73;5.65;;;;;;;17.83;71.84;93225.31;4860271;29;20624;-86
2021/05/16 13:01:38;;;;;;;4.65;4.22;;;;;;;17.77;70.55;93213.34;4880299;29;20087;-84
2021/05/16 13:04:08;;;;;;;8.68;4.82;;;;;;;17.84;70.49;93227.63;4867551;29;20072;-83
2021/05/16 13:06:36;;;;;;;6.38;2.80;;;;;;;17.86;65.60;93222.72;4865592;29;20513;-83
2021/05/16 13:09:08;;;;;;;12.00;6.22;;;;;;;17.92;68.70;93221.34;4875297;29;20044;-84
2021/05/16 13:12:02;;;;;;;11.45;6.03;;;;;;;17.86;68.29;93200.56;4882832;29;20075;-86